sensor_id;sensor_type;location;lat;lon;timestamp;pressure;altitude;pressure_sealevel;temperature;humidity
17260;BME280;8746;49.230;9.220;2023-07-24T00:00:33;99133.16;;;16.85;100.00
17260;BME280;8746;49.230;9.220;2023-07-24T00:03:02;99122.50;;;16.73;100.00
17260;BME280;8746;49.230;9.220;2023-07-24T00:05:27;99124.91;;;16.88;100.00
17260;BME280;8746;49.230;9.220;2023-07-24T00:07:53;99138.50;;;16.96;100.00
17260;BME280;8746;49.230;9.220;2023-07-24T00:10:18;99148.91;;;16.99;100.00
17260;BME280;8746;49.230;9.220;2023-07-24T00:12:43;99152.31;;;17.01;100.00
17260;BME280;8746;49.230;9.220;2023-07-24T00:15:09;99146.97;;;17.01;100.00
17260;BME280;8746;49.230;9.220;2023-07-24T00:17:34;99139.44;;;17.06;100.00
17260;BME280;8746;49.230;9.220;2023-07-24T00:20:00;99128.31;;;17.01;100.00
17260;BME280;8746;49.230;9.220;2023-07-24T00:22:25;99120.34;;;17.01;100.00
17260;BME280;8746;49.230;9.220;2023-07-24T00:24:50;99124.81;;;17.01;100.00
17260;BME280;8746;49.230;9.220;2023-07-24T00:27:15;99127.84;;;16.96;100.00
17260;BME280;8746;49.230;9.220;2023-07-24T00:29:41;99117.06;;;16.97;100.00
17260;BME280;8746;49.230;9.220;2023-07-24T00:32:06;99111.59;;;16.99;100.00
17260;BME280;8746;49.230;9.220;2023-07-24T00:34:31;99127.34;;;16.91;100.00
17260;BME280;8746;49.230;9.220;2023-07-24T00:36:57;99112.22;;;16.80;100.00
17260;BME280;8746;49.230;9.220;2023-07-24T00:39:22;99118.88;;;16.74;100.00
17260;BME280;8746;49.230;9.220;2023-07-24T00:41:47;99122.00;;;16.79;100.00
17260;BME280;8746;49.230;9.220;2023-07-24T00:44:13;99122.13;;;16.78;100.00
17260;BME280;8746;49.230;9.220;2023-07-24T00:46:38;99109.19;;;16.85;100.00
17260;BME280;8746;49.230;9.220;2023-07-24T00:49:04;99104.09;;;16.81;100.00
17260;BME280;8746;49.230;9.220;2023-07-24T00:51:30;99101.28;;;16.83;100.00
17260;BME280;8746;49.230;9.220;2023-07-24T00:53:57;99102.16;;;16.83;100.00
17260;BME280;8746;49.230;9.220;2023-07-24T00:56:25;99106.03;;;16.79;100.00
17260;BME280;8746;49.230;9.220;2023-07-24T00:58:51;99103.72;;;16.86;100.00
17260;BME280;8746;49.230;9.220;2023-07-24T01:01:17;99105.06;;;16.92;100.00
17260;BME280;8746;49.230;9.220;2023-07-24T01:03:43;99097.81;;;16.82;100.00
17260;BME280;8746;49.230;9.220;2023-07-24T01:06:09;99094.88;;;16.86;100.00
17260;BME280;8746;49.230;9.220;2023-07-24T01:08:35;99095.88;;;16.85;100.00
17260;BME280;8746;49.230;9.220;2023-07-24T01:11:10;99080.00;;;16.83;100.00
17260;BME280;8746;49.230;9.220;2023-07-24T01:13:42;99085.47;;;16.70;100.00
17260;BME280;8746;49.230;9.220;2023-07-24T01:16:13;99078.66;;;16.66;100.00
17260;BME280;8746;49.230;9.220;2023-07-24T01:18:39;99067.91;;;16.67;100.00
17260;BME280;8746;49.230;9.220;2023-07-24T01:21:06;99068.63;;;16.70;100.00
17260;BME280;8746;49.230;9.220;2023-07-24T01:23:58;99062.94;;;16.63;100.00
17260;BME280;8746;49.230;9.220;2023-07-24T01:26:25;99053.50;;;16.59;100.00
17260;BME280;8746;49.230;9.220;2023-07-24T01:28:51;99047.94;;;16.62;100.00
17260;BME280;8746;49.230;9.220;2023-07-24T01:31:16;99048.06;;;16.60;100.00
17260;BME280;8746;49.230;9.220;2023-07-24T01:33:43;99035.72;;;16.59;100.00
17260;BME280;8746;49.230;9.220;2023-07-24T01:36:09;99039.72;;;16.54;100.00
17260;BME280;8746;49.230;9.220;2023-07-24T01:38:35;99042.72;;;16.49;100.00
17260;BME280;8746;49.230;9.220;2023-07-24T01:41:02;99038.28;;;16.38;100.00
17260;BME280;8746;49.230;9.220;2023-07-24T01:43:29;99043.00;;;16.34;100.00
17260;BME280;8746;49.230;9.220;2023-07-24T01:45:55;99048.31;;;16.34;100.00
17260;BME280;8746;49.230;9.220;2023-07-24T01:48:21;99038.75;;;16.32;100.00
17260;BME280;8746;49.230;9.220;2023-07-24T01:50:46;99040.09;;;16.38;100.00
17260;BME280;8746;49.230;9.220;2023-07-24T01:53:12;99045.41;;;16.49;100.00
17260;BME280;8746;49.230;9.220;2023-07-24T01:55:37;99045.28;;;16.50;100.00
17260;BME280;8746;49.230;9.220;2023-07-24T01:58:02;99044.53;;;16.60;100.00
17260;BME280;8746;49.230;9.220;2023-07-24T02:00:28;99056.16;;;16.59;100.00
17260;BME280;8746;49.230;9.220;2023-07-24T02:02:53;99057.63;;;16.63;100.00
17260;BME280;8746;49.230;9.220;2023-07-24T02:05:18;99055.44;;;16.68;100.00
17260;BME280;8746;49.230;9.220;2023-07-24T02:07:43;99047.22;;;16.71;100.00
17260;BME280;8746;49.230;9.220;2023-07-24T02:10:09;99046.72;;;16.66;100.00
17260;BME280;8746;49.230;9.220;2023-07-24T02:12:34;99049.50;;;16.64;100.00
17260;BME280;8746;49.230;9.220;2023-07-24T02:15:00;99056.66;;;16.64;100.00
17260;BME280;8746;49.230;9.220;2023-07-24T02:17:25;99050.34;;;16.65;100.00
17260;BME280;8746;49.230;9.220;2023-07-24T02:19:50;99049.66;;;16.52;100.00
17260;BME280;8746;49.230;9.220;2023-07-24T02:22:16;99052.78;;;16.57;100.00
17260;BME280;8746;49.230;9.220;2023-07-24T02:24:41;99049.16;;;16.58;100.00
17260;BME280;8746;49.230;9.220;2023-07-24T02:27:07;99045.78;;;16.56;100.00
17260;BME280;8746;49.230;9.220;2023-07-24T02:29:32;99049.16;;;16.58;100.00
17260;BME280;8746;49.230;9.220;2023-07-24T02:31:58;99043.09;;;16.56;100.00
17260;BME280;8746;49.230;9.220;2023-07-24T02:34:23;99048.78;;;16.51;100.00
17260;BME280;8746;49.230;9.220;2023-07-24T02:36:54;99039.25;;;16.48;100.00
17260;BME280;8746;49.230;9.220;2023-07-24T02:39:20;99037.16;;;16.29;100.00
17260;BME280;8746;49.230;9.220;2023-07-24T02:41:47;99031.25;;;16.03;100.00
17260;BME280;8746;49.230;9.220;2023-07-24T02:44:13;99023.38;;;16.01;100.00
17260;BME280;8746;49.230;9.220;2023-07-24T02:46:39;99030.28;;;16.15;100.00
17260;BME280;8746;49.230;9.220;2023-07-24T02:49:04;99029.31;;;16.16;100.00
17260;BME280;8746;49.230;9.220;2023-07-24T02:51:30;99025.91;;;16.14;100.00
17260;BME280;8746;49.230;9.220;2023-07-24T02:53:55;99021.22;;;16.18;100.00
17260;BME280;8746;49.230;9.220;2023-07-24T02:56:21;99012.50;;;16.16;100.00
17260;BME280;8746;49.230;9.220;2023-07-24T02:58:46;99005.38;;;16.16;100.00
17260;BME280;8746;49.230;9.220;2023-07-24T03:01:12;99006.69;;;15.88;100.00
17260;BME280;8746;49.230;9.220;2023-07-24T03:03:40;99004.38;;;15.95;100.00
17260;BME280;8746;49.230;9.220;2023-07-24T03:06:05;99000.41;;;16.00;100.00
17260;BME280;8746;49.230;9.220;2023-07-24T03:08:30;99001.97;;;16.03;100.00
17260;BME280;8746;49.230;9.220;2023-07-24T03:10:56;99014.06;;;16.07;100.00
17260;BME280;8746;49.230;9.220;2023-07-24T03:13:21;99017.19;;;16.12;100.00
17260;BME280;8746;49.230;9.220;2023-07-24T03:15:53;99025.22;;;16.24;100.00
17260;BME280;8746;49.230;9.220;2023-07-24T03:18:19;99021.94;;;16.31;100.00
17260;BME280;8746;49.230;9.220;2023-07-24T03:20:45;99001.75;;;16.29;100.00
17260;BME280;8746;49.230;9.220;2023-07-24T03:23:10;98994.38;;;16.21;100.00
17260;BME280;8746;49.230;9.220;2023-07-24T03:25:35;99002.44;;;16.19;100.00
17260;BME280;8746;49.230;9.220;2023-07-24T03:28:01;98998.34;;;16.27;100.00
17260;BME280;8746;49.230;9.220;2023-07-24T03:30:27;98997.38;;;16.28;100.00
17260;BME280;8746;49.230;9.220;2023-07-24T03:32:52;98990.72;;;16.22;100.00
17260;BME280;8746;49.230;9.220;2023-07-24T03:35:17;98980.47;;;16.17;100.00
17260;BME280;8746;49.230;9.220;2023-07-24T03:37:43;98971.88;;;16.14;100.00
17260;BME280;8746;49.230;9.220;2023-07-24T03:40:08;98981.06;;;16.21;100.00
17260;BME280;8746;49.230;9.220;2023-07-24T03:42:33;98984.81;;;16.18;100.00
17260;BME280;8746;49.230;9.220;2023-07-24T03:44:59;98976.72;;;16.20;100.00
17260;BME280;8746;49.230;9.220;2023-07-24T03:47:24;98975.75;;;16.21;100.00
17260;BME280;8746;49.230;9.220;2023-07-24T03:49:50;98980.94;;;16.23;100.00
17260;BME280;8746;49.230;9.220;2023-07-24T03:52:15;98973.44;;;16.28;100.00
17260;BME280;8746;49.230;9.220;2023-07-24T03:54:41;98980.94;;;16.23;100.00
17260;BME280;8746;49.230;9.220;2023-07-24T03:57:06;98978.28;;;16.23;100.00
17260;BME280;8746;49.230;9.220;2023-07-24T03:59:32;98989.41;;;16.28;100.00
17260;BME280;8746;49.230;9.220;2023-07-24T04:01:57;98988.19;;;16.21;100.00
17260;BME280;8746;49.230;9.220;2023-07-24T04:04:23;98989.66;;;16.25;100.00
17260;BME280;8746;49.230;9.220;2023-07-24T04:06:48;98989.41;;;16.28;100.00
17260;BME280;8746;49.230;9.220;2023-07-24T04:09:14;98999.31;;;16.37;100.00
17260;BME280;8746;49.230;9.220;2023-07-24T04:11:40;99002.94;;;16.36;100.00
17260;BME280;8746;49.230;9.220;2023-07-24T04:14:05;98999.53;;;16.45;100.00
17260;BME280;8746;49.230;9.220;2023-07-24T04:16:31;98993.84;;;16.50;100.00
17260;BME280;8746;49.230;9.220;2023-07-24T04:18:56;98985.25;;;16.58;100.00
17260;BME280;8746;49.230;9.220;2023-07-24T04:21:22;98977.88;;;16.50;100.00
17260;BME280;8746;49.230;9.220;2023-07-24T04:23:48;98988.16;;;16.55;100.00
17260;BME280;8746;49.230;9.220;2023-07-24T04:26:13;98970.72;;;16.62;100.00
17260;BME280;8746;49.230;9.220;2023-07-24T04:28:38;98968.75;;;16.75;100.00
17260;BME280;8746;49.230;9.220;2023-07-24T04:31:03;98967.53;;;16.79;100.00
17260;BME280;8746;49.230;9.220;2023-07-24T04:33:29;98970.81;;;16.72;100.00
17260;BME280;8746;49.230;9.220;2023-07-24T04:35:55;98962.09;;;16.70;100.00
17260;BME280;8746;49.230;9.220;2023-07-24T04:38:21;98956.44;;;16.63;100.00
17260;BME280;8746;49.230;9.220;2023-07-24T04:40:46;98955.22;;;16.67;100.00
17260;BME280;8746;49.230;9.220;2023-07-24T04:43:11;98952.63;;;16.77;100.00
17260;BME280;8746;49.230;9.220;2023-07-24T04:45:37;98948.63;;;16.82;100.00
17260;BME280;8746;49.230;9.220;2023-07-24T04:48:02;98939.69;;;16.83;100.00
17260;BME280;8746;49.230;9.220;2023-07-24T04:50:28;98947.41;;;16.87;100.00
17260;BME280;8746;49.230;9.220;2023-07-24T04:52:54;98937.84;;;16.84;100.00
17260;BME280;8746;49.230;9.220;2023-07-24T04:55:19;98936.50;;;16.90;100.00
17260;BME280;8746;49.230;9.220;2023-07-24T04:57:46;98941.50;;;16.94;100.00
17260;BME280;8746;49.230;9.220;2023-07-24T05:00:11;98937.72;;;16.97;100.00
17260;BME280;8746;49.230;9.220;2023-07-24T05:02:37;98922.91;;;17.04;100.00
17260;BME280;8746;49.230;9.220;2023-07-24T05:05:02;98933.75;;;17.12;100.00
17260;BME280;8746;49.230;9.220;2023-07-24T05:07:27;98923.59;;;17.18;100.00
17260;BME280;8746;49.230;9.220;2023-07-24T05:09:53;98917.97;;;17.21;100.00
17260;BME280;8746;49.230;9.220;2023-07-24T05:12:18;98913.81;;;17.28;100.00
17260;BME280;8746;49.230;9.220;2023-07-24T05:14:43;98903.16;;;17.28;100.00
17260;BME280;8746;49.230;9.220;2023-07-24T05:17:09;98916.94;;;17.33;100.00
17260;BME280;8746;49.230;9.220;2023-07-24T05:19:34;98920.31;;;17.35;100.00
17260;BME280;8746;49.230;9.220;2023-07-24T05:21:59;98917.00;;;17.43;100.00
17260;BME280;8746;49.230;9.220;2023-07-24T05:24:24;98916.69;;;17.36;100.00
17260;BME280;8746;49.230;9.220;2023-07-24T05:26:50;98920.97;;;17.27;100.00
17260;BME280;8746;49.230;9.220;2023-07-24T05:29:15;98916.34;;;17.08;100.00
17260;BME280;8746;49.230;9.220;2023-07-24T05:31:40;98910.63;;;17.13;100.00
17260;BME280;8746;49.230;9.220;2023-07-24T05:34:06;98910.09;;;16.98;100.00
17260;BME280;8746;49.230;9.220;2023-07-24T05:36:31;98909.25;;;17.19;100.00
17260;BME280;8746;49.230;9.220;2023-07-24T05:38:56;98923.59;;;17.18;100.00
17260;BME280;8746;49.230;9.220;2023-07-24T05:41:22;98924.56;;;17.17;100.00
17260;BME280;8746;49.230;9.220;2023-07-24T05:43:48;98929.81;;;17.28;100.00
17260;BME280;8746;49.230;9.220;2023-07-24T05:46:13;98935.34;;;17.36;100.00
17260;BME280;8746;49.230;9.220;2023-07-24T05:48:38;98942.81;;;17.42;100.00
17260;BME280;8746;49.230;9.220;2023-07-24T05:51:04;98946.00;;;17.36;100.00
17260;BME280;8746;49.230;9.220;2023-07-24T05:53:29;98942.38;;;17.37;100.00
17260;BME280;8746;49.230;9.220;2023-07-24T05:55:58;98944.00;;;17.50;100.00
17260;BME280;8746;49.230;9.220;2023-07-24T05:58:25;98945.16;;;17.57;100.00
17260;BME280;8746;49.230;9.220;2023-07-24T06:00:50;98949.69;;;17.66;100.00
17260;BME280;8746;49.230;9.220;2023-07-24T06:03:15;98940.91;;;17.75;100.00
17260;BME280;8746;49.230;9.220;2023-07-24T06:05:40;98934.94;;;17.62;100.00
17260;BME280;8746;49.230;9.220;2023-07-24T06:08:06;98952.28;;;17.77;100.00
17260;BME280;8746;49.230;9.220;2023-07-24T06:10:33;98954.88;;;17.89;100.00
17260;BME280;8746;49.230;9.220;2023-07-24T06:12:59;98948.19;;;17.94;100.00
17260;BME280;8746;49.230;9.220;2023-07-24T06:15:24;98953.50;;;17.94;100.00
17260;BME280;8746;49.230;9.220;2023-07-24T06:17:50;98950.19;;;18.02;100.00
17260;BME280;8746;49.230;9.220;2023-07-24T06:20:15;98964.22;;;18.04;100.00
17260;BME280;8746;49.230;9.220;2023-07-24T06:22:40;98961.84;;;18.01;100.00
17260;BME280;8746;49.230;9.220;2023-07-24T06:25:06;98965.09;;;18.05;100.00
17260;BME280;8746;49.230;9.220;2023-07-24T06:27:31;98963.25;;;18.05;100.00
17260;BME280;8746;49.230;9.220;2023-07-24T06:29:57;98960.88;;;18.02;100.00
17260;BME280;8746;49.230;9.220;2023-07-24T06:32:22;98962.50;;;17.93;100.00
17260;BME280;8746;49.230;9.220;2023-07-24T06:34:47;98960.81;;;17.92;100.00
17260;BME280;8746;49.230;9.220;2023-07-24T06:37:13;98956.94;;;18.06;100.00
17260;BME280;8746;49.230;9.220;2023-07-24T06:39:38;98956.16;;;18.16;100.00
17260;BME280;8746;49.230;9.220;2023-07-24T06:42:03;98950.28;;;18.22;100.00
17260;BME280;8746;49.230;9.220;2023-07-24T06:44:29;98952.41;;;18.28;100.00
17260;BME280;8746;49.230;9.220;2023-07-24T06:46:54;98939.72;;;18.20;100.00
17260;BME280;8746;49.230;9.220;2023-07-24T06:49:19;98944.06;;;18.21;100.00
17260;BME280;8746;49.230;9.220;2023-07-24T06:51:45;98943.69;;;18.26;100.00
17260;BME280;8746;49.230;9.220;2023-07-24T06:54:10;98933.16;;;18.34;100.00
17260;BME280;8746;49.230;9.220;2023-07-24T06:56:36;98941.19;;;18.34;100.00
17260;BME280;8746;49.230;9.220;2023-07-24T06:59:01;98938.16;;;18.68;100.00
17260;BME280;8746;49.230;9.220;2023-07-24T07:01:26;98932.81;;;18.58;100.00
17260;BME280;8746;49.230;9.220;2023-07-24T07:03:52;98928.16;;;18.61;100.00
17260;BME280;8746;49.230;9.220;2023-07-24T07:06:17;98933.66;;;18.79;100.00
17260;BME280;8746;49.230;9.220;2023-07-24T07:08:42;98940.69;;;18.89;100.00
17260;BME280;8746;49.230;9.220;2023-07-24T07:11:08;98927.22;;;19.01;100.00
17260;BME280;8746;49.230;9.220;2023-07-24T07:13:33;98919.91;;;19.13;100.00
17260;BME280;8746;49.230;9.220;2023-07-24T07:15:58;98918.63;;;19.27;100.00
17260;BME280;8746;49.230;9.220;2023-07-24T07:18:24;98928.19;;;19.19;100.00
17260;BME280;8746;49.230;9.220;2023-07-24T07:20:51;98922.72;;;19.21;100.00
17260;BME280;8746;49.230;9.220;2023-07-24T07:23:16;98925.97;;;19.15;100.00
17260;BME280;8746;49.230;9.220;2023-07-24T07:25:42;98923.69;;;19.30;100.00
17260;BME280;8746;49.230;9.220;2023-07-24T07:28:14;98935.22;;;19.20;100.00
17260;BME280;8746;49.230;9.220;2023-07-24T07:30:40;98944.25;;;19.10;100.00
17260;BME280;8746;49.230;9.220;2023-07-24T07:33:06;98943.41;;;18.99;100.00
17260;BME280;8746;49.230;9.220;2023-07-24T07:35:32;98946.47;;;18.85;100.00
17260;BME280;8746;49.230;9.220;2023-07-24T07:37:58;98953.13;;;19.00;100.00
17260;BME280;8746;49.230;9.220;2023-07-24T07:40:23;98953.13;;;19.20;100.00
17260;BME280;8746;49.230;9.220;2023-07-24T07:42:49;98949.88;;;19.16;100.00
17260;BME280;8746;49.230;9.220;2023-07-24T07:45:14;98952.25;;;19.39;100.00
17260;BME280;8746;49.230;9.220;2023-07-24T07:47:39;98946.47;;;19.34;100.00
17260;BME280;8746;49.230;9.220;2023-07-24T07:50:05;98952.00;;;19.13;100.00
17260;BME280;8746;49.230;9.220;2023-07-24T07:52:30;98949.16;;;19.14;100.00
17260;BME280;8746;49.230;9.220;2023-07-24T07:54:56;98968.44;;;19.08;100.00
17260;BME280;8746;49.230;9.220;2023-07-24T07:57:21;98959.44;;;18.99;100.00
17260;BME280;8746;49.230;9.220;2023-07-24T07:59:46;98949.56;;;18.90;100.00
17260;BME280;8746;49.230;9.220;2023-07-24T08:02:12;98947.44;;;18.74;100.00
17260;BME280;8746;49.230;9.220;2023-07-24T08:04:37;98961.06;;;18.61;100.00
17260;BME280;8746;49.230;9.220;2023-07-24T08:07:02;98961.31;;;18.58;100.00
17260;BME280;8746;49.230;9.220;2023-07-24T08:09:28;98969.63;;;18.55;100.00
17260;BME280;8746;49.230;9.220;2023-07-24T08:11:54;98986.06;;;18.50;100.00
17260;BME280;8746;49.230;9.220;2023-07-24T08:14:19;98999.88;;;18.65;100.00
17260;BME280;8746;49.230;9.220;2023-07-24T08:16:44;99009.59;;;18.76;100.00
17260;BME280;8746;49.230;9.220;2023-07-24T08:19:10;99019.72;;;18.82;100.00
17260;BME280;8746;49.230;9.220;2023-07-24T08:21:35;99014.25;;;18.84;100.00
17260;BME280;8746;49.230;9.220;2023-07-24T08:24:01;99019.56;;;18.74;100.00
17260;BME280;8746;49.230;9.220;2023-07-24T08:26:27;99021.56;;;18.72;100.00
17260;BME280;8746;49.230;9.220;2023-07-24T08:28:52;99022.34;;;18.63;100.00
17260;BME280;8746;49.230;9.220;2023-07-24T08:31:18;99035.69;;;18.53;100.00
17260;BME280;8746;49.230;9.220;2023-07-24T08:33:43;99037.47;;;18.42;100.00
17260;BME280;8746;49.230;9.220;2023-07-24T08:36:09;99004.00;;;18.38;100.00
17260;BME280;8746;49.230;9.220;2023-07-24T08:38:36;98977.88;;;18.42;100.00
17260;BME280;8746;49.230;9.220;2023-07-24T08:41:10;98975.22;;;18.52;100.00
17260;BME280;8746;49.230;9.220;2023-07-24T08:43:38;98970.84;;;18.51;100.00
17260;BME280;8746;49.230;9.220;2023-07-24T08:46:04;98969.47;;;18.56;100.00
17260;BME280;8746;49.230;9.220;2023-07-24T08:48:32;98966.66;;;18.58;100.00
17260;BME280;8746;49.230;9.220;2023-07-24T08:51:02;98969.53;;;18.86;100.00
17260;BME280;8746;49.230;9.220;2023-07-24T08:53:28;98960.84;;;18.94;100.00
17260;BME280;8746;49.230;9.220;2023-07-24T08:55:54;98956.50;;;19.02;100.00
17260;BME280;8746;49.230;9.220;2023-07-24T08:58:21;98950.16;;;18.94;100.00
17260;BME280;8746;49.230;9.220;2023-07-24T09:00:46;98947.03;;;18.79;100.00
17260;BME280;8746;49.230;9.220;2023-07-24T09:03:11;98945.78;;;18.83;100.00
17260;BME280;8746;49.230;9.220;2023-07-24T09:05:37;98941.53;;;18.90;100.00
17260;BME280;8746;49.230;9.220;2023-07-24T09:08:02;98937.78;;;19.02;100.00
17260;BME280;8746;49.230;9.220;2023-07-24T09:10:27;98932.56;;;19.11;100.00
17260;BME280;8746;49.230;9.220;2023-07-24T09:12:54;98928.47;;;19.36;100.00
17260;BME280;8746;49.230;9.220;2023-07-24T09:15:20;98921.94;;;19.58;100.00
17260;BME280;8746;49.230;9.220;2023-07-24T09:17:52;98923.84;;;19.85;100.00
17260;BME280;8746;49.230;9.220;2023-07-24T09:20:19;98923.94;;;20.04;100.00
17260;BME280;8746;49.230;9.220;2023-07-24T09:22:51;98913.34;;;20.12;100.00
17260;BME280;8746;49.230;9.220;2023-07-24T09:25:17;98916.19;;;20.28;100.00
17260;BME280;8746;49.230;9.220;2023-07-24T09:27:43;98921.06;;;20.43;100.00
17260;BME280;8746;49.230;9.220;2023-07-24T09:30:13;98900.09;;;20.56;100.00
17260;BME280;8746;49.230;9.220;2023-07-24T09:32:53;98905.66;;;20.73;100.00
17260;BME280;8746;49.230;9.220;2023-07-24T09:35:20;98911.56;;;20.76;100.00
17260;BME280;8746;49.230;9.220;2023-07-24T09:37:46;98909.25;;;20.81;100.00
17260;BME280;8746;49.230;9.220;2023-07-24T09:40:14;98900.22;;;21.01;100.00
17260;BME280;8746;49.230;9.220;2023-07-24T09:42:39;98906.84;;;21.33;100.00
17260;BME280;8746;49.230;9.220;2023-07-24T09:45:06;98904.13;;;21.77;99.89
17260;BME280;8746;49.230;9.220;2023-07-24T09:47:33;98911.72;;;22.24;96.53
17260;BME280;8746;49.230;9.220;2023-07-24T09:50:00;98911.00;;;22.49;93.45
17260;BME280;8746;49.230;9.220;2023-07-24T09:52:28;98919.59;;;22.69;88.76
17260;BME280;8746;49.230;9.220;2023-07-24T09:57:23;98909.50;;;22.46;84.92
17260;BME280;8746;49.230;9.220;2023-07-24T09:59:49;98906.63;;;22.48;90.11
17260;BME280;8746;49.230;9.220;2023-07-24T10:02:17;98908.31;;;22.49;88.63
17260;BME280;8746;49.230;9.220;2023-07-24T10:04:43;98909.75;;;22.35;86.79
17260;BME280;8746;49.230;9.220;2023-07-24T10:07:09;98927.63;;;22.18;87.02
17260;BME280;8746;49.230;9.220;2023-07-24T10:09:35;98927.81;;;22.16;86.49
17260;BME280;8746;49.230;9.220;2023-07-24T10:12:02;98928.88;;;21.97;89.84
17260;BME280;8746;49.230;9.220;2023-07-24T10:14:28;98947.59;;;21.81;90.30
17260;BME280;8746;49.230;9.220;2023-07-24T10:16:56;98942.28;;;21.63;91.38
17260;BME280;8746;49.230;9.220;2023-07-24T10:19:21;98952.56;;;21.49;91.31
17260;BME280;8746;49.230;9.220;2023-07-24T10:21:47;98956.19;;;21.40;92.01
17260;BME280;8746;49.230;9.220;2023-07-24T10:24:16;98951.19;;;21.45;92.74
17260;BME280;8746;49.230;9.220;2023-07-24T10:26:42;98943.16;;;21.27;92.21
17260;BME280;8746;49.230;9.220;2023-07-24T10:29:09;98937.63;;;21.28;93.18
17260;BME280;8746;49.230;9.220;2023-07-24T10:31:34;98939.03;;;21.33;92.83
17260;BME280;8746;49.230;9.220;2023-07-24T10:34:07;98932.91;;;21.22;93.34
17260;BME280;8746;49.230;9.220;2023-07-24T10:36:34;98934.31;;;21.08;94.08
17260;BME280;8746;49.230;9.220;2023-07-24T10:38:59;98931.38;;;21.02;96.48
17260;BME280;8746;49.230;9.220;2023-07-24T10:41:36;98931.91;;;21.05;94.81
17260;BME280;8746;49.230;9.220;2023-07-24T10:44:02;98932.44;;;21.09;94.60
17260;BME280;8746;49.230;9.220;2023-07-24T10:46:41;98935.66;;;20.94;96.18
17260;BME280;8746;49.230;9.220;2023-07-24T10:49:08;98925.88;;;20.85;98.57
17260;BME280;8746;49.230;9.220;2023-07-24T10:51:33;98934.69;;;20.77;100.00
17260;BME280;8746;49.230;9.220;2023-07-24T10:54:03;98926.94;;;20.74;100.00
17260;BME280;8746;49.230;9.220;2023-07-24T10:56:28;98926.97;;;20.64;100.00
17260;BME280;8746;49.230;9.220;2023-07-24T10:58:54;98922.13;;;20.50;100.00
17260;BME280;8746;49.230;9.220;2023-07-24T11:01:19;98928.41;;;20.41;100.00
17260;BME280;8746;49.230;9.220;2023-07-24T11:03:45;98922.63;;;20.36;100.00
17260;BME280;8746;49.230;9.220;2023-07-24T11:06:15;98927.22;;;20.25;100.00
17260;BME280;8746;49.230;9.220;2023-07-24T11:08:41;98927.16;;;20.07;100.00
17260;BME280;8746;49.230;9.220;2023-07-24T11:11:07;98921.56;;;20.00;100.00
17260;BME280;8746;49.230;9.220;2023-07-24T11:13:33;98930.63;;;19.90;100.00
17260;BME280;8746;49.230;9.220;2023-07-24T11:16:04;98939.09;;;19.85;100.00
17260;BME280;8746;49.230;9.220;2023-07-24T11:18:30;98926.97;;;19.81;100.00
17260;BME280;8746;49.230;9.220;2023-07-24T11:20:56;98918.94;;;19.81;100.00
17260;BME280;8746;49.230;9.220;2023-07-24T11:23:22;98909.91;;;19.82;100.00
17260;BME280;8746;49.230;9.220;2023-07-24T11:25:51;98905.28;;;19.84;100.00
17260;BME280;8746;49.230;9.220;2023-07-24T11:28:17;98884.69;;;19.94;100.00
17260;BME280;8746;49.230;9.220;2023-07-24T11:30:42;98894.81;;;20.18;100.00
17260;BME280;8746;49.230;9.220;2023-07-24T11:33:10;98884.53;;;20.24;100.00
17260;BME280;8746;49.230;9.220;2023-07-24T11:35:36;98872.59;;;20.36;100.00
17260;BME280;8746;49.230;9.220;2023-07-24T11:38:04;98879.53;;;20.57;100.00
17260;BME280;8746;49.230;9.220;2023-07-24T11:40:38;98860.59;;;20.58;100.00
17260;BME280;8746;49.230;9.220;2023-07-24T11:43:04;98858.00;;;20.66;100.00
17260;BME280;8746;49.230;9.220;2023-07-24T11:45:30;98840.50;;;20.72;100.00
17260;BME280;8746;49.230;9.220;2023-07-24T11:47:56;98847.59;;;20.63;100.00
17260;BME280;8746;49.230;9.220;2023-07-24T11:50:22;98852.94;;;20.63;100.00
17260;BME280;8746;49.230;9.220;2023-07-24T11:52:50;98860.53;;;20.68;100.00
17260;BME280;8746;49.230;9.220;2023-07-24T11:55:29;98858.72;;;20.87;100.00
17260;BME280;8746;49.230;9.220;2023-07-24T11:57:59;98845.91;;;20.98;100.00
17260;BME280;8746;49.230;9.220;2023-07-24T12:00:24;98854.34;;;21.56;100.00
17260;BME280;8746;49.230;9.220;2023-07-24T12:02:50;98849.09;;;22.16;100.00
17260;BME280;8746;49.230;9.220;2023-07-24T12:05:16;98847.00;;;22.61;94.59
17260;BME280;8746;49.230;9.220;2023-07-24T12:07:43;98845.66;;;23.06;92.26
17260;BME280;8746;49.230;9.220;2023-07-24T12:10:12;98850.41;;;23.20;92.14
17260;BME280;8746;49.230;9.220;2023-07-24T12:12:46;98846.69;;;23.30;93.62
17260;BME280;8746;49.230;9.220;2023-07-24T12:15:12;98842.66;;;23.26;90.61
17260;BME280;8746;49.230;9.220;2023-07-24T12:17:38;98843.84;;;23.07;92.06
17260;BME280;8746;49.230;9.220;2023-07-24T12:20:05;98843.81;;;22.98;91.03
17260;BME280;8746;49.230;9.220;2023-07-24T12:22:32;98856.56;;;22.63;89.97
17260;BME280;8746;49.230;9.220;2023-07-24T12:24:57;98851.03;;;22.56;91.46
17260;BME280;8746;49.230;9.220;2023-07-24T12:27:23;98849.69;;;22.61;89.19
17260;BME280;8746;49.230;9.220;2023-07-24T12:29:49;98841.28;;;22.39;90.10
17260;BME280;8746;49.230;9.220;2023-07-24T12:32:15;98851.41;;;22.70;90.23
17260;BME280;8746;49.230;9.220;2023-07-24T12:34:40;98851.03;;;22.56;86.65
17260;BME280;8746;49.230;9.220;2023-07-24T12:37:05;98856.72;;;22.53;88.00
17260;BME280;8746;49.230;9.220;2023-07-24T12:39:31;98850.38;;;22.63;88.19
17260;BME280;8746;49.230;9.220;2023-07-24T12:41:56;98848.84;;;22.52;88.88
17260;BME280;8746;49.230;9.220;2023-07-24T12:44:22;98845.69;;;22.65;85.94
17260;BME280;8746;49.230;9.220;2023-07-24T12:46:48;98837.25;;;22.60;84.21
17260;BME280;8746;49.230;9.220;2023-07-24T12:49:13;98833.50;;;22.36;85.99
17260;BME280;8746;49.230;9.220;2023-07-24T12:51:39;98822.81;;;22.61;85.28
17260;BME280;8746;49.230;9.220;2023-07-24T12:54:04;98829.53;;;22.56;86.22
17260;BME280;8746;49.230;9.220;2023-07-24T12:56:29;98824.69;;;22.60;85.53
17260;BME280;8746;49.230;9.220;2023-07-24T12:58:55;98826.88;;;22.05;86.31